Time;durP1;ratioP1;P1;durP2;ratioP2;P2;SDS_P1;SDS_P2;PMS_P1;PMS_P2;Temp;Humidity;BMP_temperature;BMP_pressure;BME280_temperature;BME280_humidity;BME280_pressure;Samples;Min_cycle;Max_cycle;Signal;HPM_P1;HPM_P2
2023/05/19 00:01:23;;;;;;;10.73;5.57;;;13.60;93.50;;;;;;4990303;28;20238;-31
2023/05/19 00:03:57;;;;;;;9.10;5.50;;;13.60;93.50;;;;;;5000602;28;20233;-31
2023/05/19 00:06:31;;;;;;;12.15;6.13;;;13.60;93.60;;;;;;4988938;28;20241;-31
2023/05/19 00:09:02;;;;;;;11.80;6.43;;;13.60;93.70;;;;;;4984617;28;20202;-31
2023/05/19 00:11:35;;;;;;;11.52;5.75;;;13.50;93.60;;;;;;4988407;28;20260;-31
2023/05/19 00:14:07;;;;;;;8.57;6.13;;;13.50;93.60;;;;;;4986082;28;20255;-31
2023/05/19 00:16:37;;;;;;;12.23;5.90;;;13.50;93.60;;;;;;4990035;28;20268;-31
2023/05/19 00:19:05;;;;;;;9.63;5.80;;;13.50;93.60;;;;;;4993401;28;20683;-31
2023/05/19 00:21:39;;;;;;;8.80;5.60;;;13.50;93.60;;;;;;4990367;28;20608;-31
2023/05/19 00:24:10;;;;;;;9.23;5.70;;;13.40;93.60;;;;;;5000673;28;20452;-31
2023/05/19 00:26:38;;;;;;;9.33;6.57;;;13.40;93.60;;;;;;5001357;28;20198;-31
2023/05/19 00:29:10;;;;;;;9.20;6.00;;;13.40;93.60;;;;;;4995809;28;20279;-31
2023/05/19 00:31:37;;;;;;;8.10;5.57;;;13.40;93.60;;;;;;4982030;28;20728;-32
2023/05/19 00:34:09;;;;;;;11.43;5.65;;;13.30;93.70;;;;;;4995246;28;20225;-31
2023/05/19 00:36:39;;;;;;;8.33;6.03;;;13.30;93.80;;;;;;4986228;28;20663;-31
2023/05/19 00:39:06;;;;;;;8.43;6.10;;;13.30;93.70;;;;;;4987730;28;20226;-31
2023/05/19 00:41:33;;;;;;;10.07;6.27;;;13.30;93.70;;;;;;4985444;28;20213;-31
2023/05/19 00:44:01;;;;;;;9.65;6.30;;;13.30;93.70;;;;;;5000821;28;20284;-31
2023/05/19 00:46:29;;;;;;;9.07;6.10;;;13.20;93.70;;;;;;4987945;28;20235;-31
2023/05/19 00:48:58;;;;;;;8.25;5.90;;;13.20;93.70;;;;;;4997604;28;20304;-31
2023/05/19 00:51:30;;;;;;;10.30;6.17;;;13.10;93.70;;;;;;4988197;28;20260;-31
2023/05/19 00:53:59;;;;;;;10.23;6.13;;;13.00;93.70;;;;;;4995176;28;20232;-31
2023/05/19 00:56:27;;;;;;;9.80;6.30;;;13.00;93.70;;;;;;5000559;28;20610;-32
2023/05/19 00:58:57;;;;;;;11.03;6.57;;;12.90;93.70;;;;;;4997366;28;20260;-31
2023/05/19 01:01:31;;;;;;;8.32;6.45;;;12.90;93.70;;;;;;4988318;28;20209;-32
2023/05/19 01:04:02;;;;;;;9.20;6.53;;;12.90;93.70;;;;;;4988557;28;20309;-31
2023/05/19 01:06:30;;;;;;;10.97;6.37;;;12.80;93.70;;;;;;4989814;28;20304;-31
2023/05/19 01:08:57;;;;;;;12.33;6.60;;;12.80;93.70;;;;;;4994190;28;20222;-31
2023/05/19 01:11:30;;;;;;;8.97;6.23;;;12.70;93.70;;;;;;4985033;28;20234;-31
2023/05/19 01:13:57;;;;;;;9.97;6.63;;;12.70;93.80;;;;;;4984602;28;20213;-31
2023/05/19 01:16:32;;;;;;;6.97;6.07;;;12.60;93.70;;;;;;4985850;28;20316;-31
2023/05/19 01:19:09;;;;;;;9.87;6.33;;;12.60;93.80;;;;;;4983083;28;20198;-31
2023/05/19 01:22:21;;;;;;;9.07;6.53;;;12.60;93.80;;;;;;4990191;28;20230;-31
2023/05/19 01:25:03;;;;;;;13.27;6.40;;;12.50;94.00;;;;;;4997092;28;20205;-31
2023/05/19 01:27:47;;;;;;;11.03;7.27;;;12.50;93.90;;;;;;4984308;28;20301;-31
2023/05/19 01:30:29;;;;;;;9.30;6.53;;;12.40;93.90;;;;;;4988592;28;20325;-31
2023/05/19 01:33:06;;;;;;;10.33;6.87;;;12.40;93.90;;;;;;4981524;28;20719;-31
2023/05/19 01:35:36;;;;;;;8.30;6.30;;;12.40;93.90;;;;;;4983372;28;20298;-31
2023/05/19 01:38:11;;;;;;;11.23;7.00;;;12.40;93.80;;;;;;4994428;28;20199;-31
2023/05/19 01:40:40;;;;;;;10.90;7.33;;;12.40;93.90;;;;;;4988125;28;20218;-31
2023/05/19 01:43:11;;;;;;;10.10;6.97;;;12.40;93.90;;;;;;5000793;28;20193;-32
2023/05/19 01:45:39;;;;;;;12.17;7.03;;;12.40;93.90;;;;;;4986904;28;20209;-31
2023/05/19 01:48:10;;;;;;;12.43;6.97;;;12.40;93.90;;;;;;4989271;28;20201;-31
2023/05/19 01:50:41;;;;;;;10.73;7.03;;;12.40;93.80;;;;;;4999506;28;20575;-31
2023/05/19 01:53:13;;;;;;;12.50;6.87;;;12.40;93.80;;;;;;4991449;28;20198;-31
2023/05/19 01:55:52;;;;;;;8.20;6.57;;;12.40;94.00;;;;;;4989211;28;20950;-31
2023/05/19 01:58:45;;;;;;;9.17;6.23;;;12.40;93.90;;;;;;4972593;28;20692;-31
2023/05/19 02:01:24;;;;;;;9.80;6.60;;;12.30;93.70;;;;;;4984328;28;20206;-31
2023/05/19 02:03:52;;;;;;;9.50;6.70;;;12.30;93.80;;;;;;5002091;28;20308;-31
2023/05/19 02:06:31;;;;;;;12.73;6.97;;;12.30;93.80;;;;;;4995341;28;20214;-31
2023/05/19 02:09:03;;;;;;;10.13;6.70;;;12.30;94.00;;;;;;4985240;28;20229;-31
2023/05/19 02:11:44;;;;;;;9.37;6.40;;;12.20;93.90;;;;;;4987234;28;20210;-31
2023/05/19 02:14:18;;;;;;;10.73;7.10;;;12.20;94.00;;;;;;5000706;28;20202;-31
2023/05/19 02:16:50;;;;;;;10.33;7.13;;;12.20;93.90;;;;;;4992094;28;20268;-31
2023/05/19 02:19:31;;;;;;;9.70;6.90;;;12.20;94.30;;;;;;4993984;28;20245;-31
2023/05/19 02:21:58;;;;;;;9.80;6.33;;;12.20;93.90;;;;;;4984777;28;20199;-31
2023/05/19 02:24:26;;;;;;;10.23;7.23;;;12.10;93.80;;;;;;5000405;28;20300;-31
2023/05/19 02:26:53;;;;;;;10.55;6.65;;;12.10;93.90;;;;;;4999756;28;20267;-31
2023/05/19 02:29:23;;;;;;;11.85;6.57;;;12.10;93.80;;;;;;4982725;28;20640;-31
2023/05/19 02:31:50;;;;;;;8.23;6.93;;;12.10;93.80;;;;;;4988775;28;20773;-31
2023/05/19 02:34:17;;;;;;;11.10;7.00;;;12.10;93.90;;;;;;4991854;28;20260;-31
2023/05/19 02:36:48;;;;;;;9.63;6.80;;;12.10;93.80;;;;;;4994253;28;20193;-31
2023/05/19 02:39:18;;;;;;;10.37;7.07;;;12.10;93.80;;;;;;4994629;28;20209;-31
2023/05/19 02:41:49;;;;;;;13.17;7.57;;;12.00;93.80;;;;;;4986803;28;20199;-31
2023/05/19 02:44:19;;;;;;;11.48;7.47;;;12.00;93.90;;;;;;4983216;28;20241;-31
2023/05/19 02:46:50;;;;;;;9.37;7.00;;;12.00;93.90;;;;;;4973928;28;20587;-31
2023/05/19 02:49:23;;;;;;;8.73;7.43;;;11.90;93.80;;;;;;5001546;28;20214;-31
2023/05/19 02:51:51;;;;;;;10.20;6.87;;;11.90;93.80;;;;;;4974174;28;20682;-31
2023/05/19 02:54:18;;;;;;;10.00;7.70;;;11.90;93.80;;;;;;4982473;28;20276;-31
2023/05/19 02:56:48;;;;;;;11.30;7.37;;;11.80;93.80;;;;;;4981810;28;20237;-31
2023/05/19 02:59:15;;;;;;;10.20;6.97;;;11.80;93.90;;;;;;4982887;28;20248;-31
2023/05/19 03:01:47;;;;;;;11.00;7.33;;;11.80;94.00;;;;;;4993108;28;20253;-31
2023/05/19 03:04:18;;;;;;;8.73;6.87;;;11.80;93.80;;;;;;4985929;28;20494;-31
2023/05/19 03:06:48;;;;;;;9.33;6.63;;;11.70;93.80;;;;;;4985057;28;20206;-31
2023/05/19 03:09:20;;;;;;;8.88;7.15;;;11.70;93.80;;;;;;4992982;28;20310;-31
2023/05/19 03:11:48;;;;;;;10.93;7.10;;;11.70;93.90;;;;;;4999097;28;20719;-31
2023/05/19 03:14:17;;;;;;;11.17;7.57;;;11.70;93.80;;;;;;4987335;28;20294;-31
2023/05/19 03:16:49;;;;;;;13.50;7.13;;;11.60;93.80;;;;;;4984132;28;20202;-31
2023/05/19 03:19:19;;;;;;;11.53;7.37;;;11.60;93.80;;;;;;4985431;28;20622;-31
2023/05/19 03:21:46;;;;;;;8.90;7.10;;;11.60;93.90;;;;;;4981592;28;20248;-31
2023/05/19 03:24:18;;;;;;;13.10;7.27;;;11.60;94.10;;;;;;4987048;28;20202;-31
2023/05/19 03:26:47;;;;;;;9.00;7.00;;;11.50;94.10;;;;;;4995615;28;20210;-31
2023/05/19 03:29:17;;;;;;;14.23;7.27;;;11.50;94.30;;;;;;4996800;28;20718;-31
2023/05/19 03:31:46;;;;;;;9.30;6.43;;;11.50;94.10;;;;;;4986228;28;20230;-31
2023/05/19 03:34:16;;;;;;;10.93;7.43;;;11.50;94.10;;;;;;4996809;28;20206;-31
2023/05/19 03:36:43;;;;;;;11.87;7.33;;;11.50;94.00;;;;;;4986796;28;20541;-31
2023/05/19 03:39:18;;;;;;;12.83;7.67;;;11.40;94.10;;;;;;4994983;28;20213;-31
2023/05/19 03:41:47;;;;;;;9.17;6.87;;;11.40;94.00;;;;;;4991594;28;20292;-31
2023/05/19 03:44:14;;;;;;;10.60;7.90;;;11.40;94.10;;;;;;4985639;28;20214;-31
2023/05/19 03:46:44;;;;;;;15.43;8.17;;;11.40;94.10;;;;;;4982745;28;20272;-31
2023/05/19 03:49:16;;;;;;;11.77;7.23;;;11.30;94.10;;;;;;4995433;28;20208;-31
2023/05/19 03:51:43;;;;;;;9.53;7.07;;;11.30;94.20;;;;;;4999972;28;20301;-31
2023/05/19 03:54:10;;;;;;;9.47;7.77;;;11.30;94.10;;;;;;4990952;28;20222;-31
2023/05/19 03:56:42;;;;;;;11.47;8.13;;;11.30;94.10;;;;;;4984924;28;20268;-31
2023/05/19 03:59:11;;;;;;;11.60;7.87;;;11.20;94.10;;;;;;4989349;28;20206;-31
2023/05/19 04:01:41;;;;;;;8.70;7.47;;;11.20;94.20;;;;;;4985238;28;20318;-31
2023/05/19 04:04:10;;;;;;;10.40;7.73;;;11.20;94.10;;;;;;5003477;28;20218;-31
2023/05/19 04:06:38;;;;;;;9.20;8.10;;;11.20;94.30;;;;;;5000021;28;20209;-31
2023/05/19 04:09:14;;;;;;;12.43;8.87;;;11.20;94.30;;;;;;4992142;28;20687;-31
2023/05/19 04:11:44;;;;;;;12.57;8.57;;;11.20;94.30;;;;;;4992006;28;20287;-31
2023/05/19 04:14:16;;;;;;;14.33;7.47;;;11.10;94.40;;;;;;4984742;28;20284;-31
2023/05/19 04:16:46;;;;;;;15.47;8.50;;;11.10;94.20;;;;;;4984908;28;20210;-31
2023/05/19 04:19:13;;;;;;;11.43;7.63;;;11.10;94.30;;;;;;4985258;28;20211;-31
2023/05/19 04:21:40;;;;;;;8.97;7.70;;;11.10;94.20;;;;;;4984278;28;20233;-31
2023/05/19 04:24:12;;;;;;;12.40;7.93;;;11.10;94.20;;;;;;5001844;28;20201;-31
2023/05/19 04:26:44;;;;;;;11.80;8.10;;;11.10;94.30;;;;;;4993821;28;20296;-31
2023/05/19 04:29:16;;;;;;;11.23;8.20;;;11.10;94.30;;;;;;4988309;28;20633;-31
2023/05/19 04:31:47;;;;;;;11.43;8.30;;;11.10;94.50;;;;;;4984702;28;20717;-31
2023/05/19 04:34:19;;;;;;;11.93;7.93;;;11.10;94.80;;;;;;4995925;28;20770;-31
2023/05/19 04:36:46;;;;;;;14.17;7.80;;;11.10;94.30;;;;;;4998297;28;20210;-31
2023/05/19 04:39:15;;;;;;;9.27;7.63;;;11.20;94.40;;;;;;4984675;28;20226;-31
2023/05/19 04:41:44;;;;;;;9.93;8.13;;;11.20;94.50;;;;;;4979924;28;20738;-31
2023/05/19 04:44:16;;;;;;;10.20;8.10;;;11.20;94.40;;;;;;4992506;28;20751;-31
2023/05/19 04:46:44;;;;;;;11.43;7.97;;;11.20;94.60;;;;;;4989902;28;20220;-31
2023/05/19 04:49:14;;;;;;;14.30;7.50;;;11.20;94.50;;;;;;4986305;28;20225;-31
2023/05/19 04:51:49;;;;;;;10.20;7.47;;;11.30;94.50;;;;;;4989154;28;20761;-31
2023/05/19 04:54:21;;;;;;;11.80;8.30;;;11.30;94.60;;;;;;4992618;28;20749;-31
2023/05/19 04:56:50;;;;;;;13.03;8.27;;;11.30;94.50;;;;;;4986705;28;20325;-31
2023/05/19 04:59:21;;;;;;;13.77;8.47;;;11.30;94.50;;;;;;4983548;28;20221;-31
2023/05/19 05:01:49;;;;;;;12.47;8.30;;;11.40;94.60;;;;;;4985273;28;20297;-31
2023/05/19 05:04:21;;;;;;;10.53;8.00;;;11.40;94.60;;;;;;4990423;28;20657;-31
2023/05/19 05:06:53;;;;;;;11.73;8.23;;;11.40;94.70;;;;;;4988791;28;20680;-31
2023/05/19 05:09:20;;;;;;;8.57;7.13;;;11.40;94.70;;;;;;4966095;28;20693;-31
2023/05/19 05:11:50;;;;;;;13.87;8.13;;;11.50;94.90;;;;;;4987926;28;20222;-31
2023/05/19 05:14:23;;;;;;;10.50;8.37;;;11.50;94.90;;;;;;4981312;28;20286;-31
2023/05/19 05:16:50;;;;;;;13.00;8.10;;;11.50;94.70;;;;;;4996085;28;20351;-31
2023/05/19 05:19:21;;;;;;;15.03;9.37;;;11.50;94.80;;;;;;4994296;28;20552;-31
2023/05/19 05:21:48;;;;;;;9.57;8.17;;;11.50;94.90;;;;;;4991511;28;20220;-31
2023/05/19 05:24:18;;;;;;;15.27;8.97;;;11.50;94.90;;;;;;5002407;28;20213;-31
2023/05/19 05:26:46;;;;;;;12.60;8.20;;;11.60;95.00;;;;;;4991770;28;20572;-31
2023/05/19 05:29:16;;;;;;;12.07;8.30;;;11.60;94.90;;;;;;4997911;28;20260;-31
2023/05/19 05:31:45;;;;;;;11.73;8.43;;;11.50;94.80;;;;;;5000622;28;20221;-31
2023/05/19 05:34:13;;;;;;;16.43;8.97;;;11.50;95.00;;;;;;4999665;28;20205;-31
2023/05/19 05:36:40;;;;;;;12.67;8.73;;;11.60;94.90;;;;;;4999066;28;20261;-31
2023/05/19 05:39:12;;;;;;;10.83;9.37;;;11.60;95.00;;;;;;4997819;28;20209;-31
2023/05/19 05:41:39;;;;;;;10.07;8.37;;;11.60;95.00;;;;;;4989878;28;20973;-31
2023/05/19 05:44:06;;;;;;;10.70;9.10;;;11.60;94.90;;;;;;4992534;28;20249;-31
2023/05/19 05:46:37;;;;;;;11.80;9.03;;;11.60;95.00;;;;;;4994950;28;20198;-31
2023/05/19 05:49:04;;;;;;;12.57;8.70;;;11.70;95.00;;;;;;4969343;28;20312;-31
2023/05/19 05:51:34;;;;;;;11.70;8.83;;;11.70;95.10;;;;;;4987102;28;20197;-31
2023/05/19 05:54:04;;;;;;;12.47;8.63;;;11.70;95.10;;;;;;4998671;28;20205;-31
2023/05/19 05:56:35;;;;;;;11.47;9.27;;;11.70;95.10;;;;;;4999474;28;20237;-31
2023/05/19 05:59:06;;;;;;;10.00;8.67;;;11.70;95.20;;;;;;4981140;28;20260;-31
2023/05/19 06:01:34;;;;;;;11.47;8.50;;;11.70;95.30;;;;;;4980419;28;20210;-31
2023/05/19 06:04:07;;;;;;;10.27;8.87;;;11.70;95.20;;;;;;4982043;28;20263;-31
2023/05/19 06:06:39;;;;;;;13.30;9.23;;;11.80;95.30;;;;;;4984636;28;20552;-31
2023/05/19 06:09:08;;;;;;;13.33;9.67;;;11.80;95.30;;;;;;4987812;28;20751;-31
2023/05/19 06:11:38;;;;;;;16.00;9.27;;;11.90;95.40;;;;;;4990630;28;20236;-31
2023/05/19 06:14:05;;;;;;;15.37;10.40;;;11.90;95.40;;;;;;4986980;28;20217;-31
2023/05/19 06:16:35;;;;;;;12.37;9.40;;;12.00;95.60;;;;;;4985470;28;20244;-31
2023/05/19 06:19:02;;;;;;;10.20;8.47;;;12.00;95.60;;;;;;4982835;28;20699;-31
2023/05/19 06:21:29;;;;;;;13.33;8.90;;;12.00;95.80;;;;;;4985432;28;20202;-31
2023/05/19 06:23:56;;;;;;;13.33;9.37;;;12.00;95.60;;;;;;4993569;28;20680;-31
2023/05/19 06:26:26;;;;;;;11.60;9.67;;;12.00;95.50;;;;;;4984324;28;20222;-30
2023/05/19 06:28:56;;;;;;;13.00;9.13;;;12.10;95.60;;;;;;4975370;28;20245;-31
2023/05/19 06:31:26;;;;;;;13.80;9.32;;;12.10;95.50;;;;;;4989902;28;20216;-31
2023/05/19 06:33:54;;;;;;;11.80;10.07;;;12.10;95.60;;;;;;4983485;28;20229;-31
2023/05/19 06:36:21;;;;;;;12.63;9.07;;;12.20;96.00;;;;;;4993000;28;20260;-31
2023/05/19 06:38:51;;;;;;;16.40;9.53;;;12.20;95.80;;;;;;4996764;28;20202;-31
2023/05/19 06:41:20;;;;;;;13.27;9.20;;;12.20;95.80;;;;;;4993456;28;20205;-31
2023/05/19 06:43:52;;;;;;;12.65;9.27;;;12.30;95.90;;;;;;4998520;28;20601;-31
2023/05/19 06:46:22;;;;;;;17.45;9.65;;;12.30;96.20;;;;;;4990083;28;20218;-31
2023/05/19 06:48:52;;;;;;;14.77;9.30;;;12.30;96.20;;;;;;4996674;28;20621;-31
2023/05/19 06:51:20;;;;;;;14.80;9.00;;;12.40;96.10;;;;;;4991946;28;20308;-31
2023/05/19 06:53:52;;;;;;;13.03;8.90;;;12.40;96.10;;;;;;4989487;28;20229;-31
2023/05/19 06:56:22;;;;;;;11.63;9.50;;;12.50;96.20;;;;;;5006598;28;20268;-31
2023/05/19 06:58:54;;;;;;;13.20;9.13;;;12.50;96.60;;;;;;4989695;28;20668;-31
2023/05/19 07:01:21;;;;;;;12.17;8.50;;;12.50;96.60;;;;;;4984878;28;20284;-31
2023/05/19 07:03:48;;;;;;;10.83;8.63;;;12.60;96.40;;;;;;4984804;28;20257;-31
2023/05/19 07:06:20;;;;;;;12.70;8.53;;;12.70;96.40;;;;;;4984421;28;20545;-31
2023/05/19 07:08:49;;;;;;;14.00;9.37;;;12.70;96.50;;;;;;4986036;28;20252;-31
2023/05/19 07:11:21;;;;;;;9.82;7.60;;;12.80;96.80;;;;;;4985814;28;20250;-31
2023/05/19 07:13:50;;;;;;;13.30;8.20;;;12.90;96.70;;;;;;4987356;28;20821;-31
2023/05/19 07:16:18;;;;;;;12.70;7.65;;;12.90;96.60;;;;;;5004194;28;20237;-31
2023/05/19 07:18:45;;;;;;;10.40;7.95;;;13.00;96.70;;;;;;4970596;28;20664;-31
2023/05/19 07:21:12;;;;;;;12.07;8.40;;;13.10;96.70;;;;;;4980389;28;20563;-31
2023/05/19 07:23:44;;;;;;;12.32;7.70;;;13.20;96.90;;;;;;5003341;28;20333;-34
2023/05/19 07:26:17;;;;;;;11.73;8.00;;;13.30;96.90;;;;;;4990514;28;20221;-35
2023/05/19 07:28:46;;;;;;;11.88;8.13;;;13.30;96.90;;;;;;4995402;28;20210;-34
2023/05/19 07:31:13;;;;;;;13.10;9.50;;;13.40;97.00;;;;;;4993762;28;20214;-35
2023/05/19 07:33:45;;;;;;;10.70;8.68;;;13.50;97.00;;;;;;5005142;28;20324;-35
2023/05/19 07:36:17;;;;;;;11.20;8.32;;;13.60;97.10;;;;;;4994359;28;20208;-35
2023/05/19 07:38:45;;;;;;;12.05;8.43;;;13.70;97.10;;;;;;4999224;28;20571;-32
2023/05/19 07:41:17;;;;;;;15.50;9.18;;;13.70;97.10;;;;;;4998022;28;20195;-31
2023/05/19 07:43:47;;;;;;;15.50;8.77;;;13.80;97.10;;;;;;4997317;28;20304;-31
2023/05/19 07:46:16;;;;;;;10.82;8.20;;;13.80;97.20;;;;;;4999683;28;20272;-31
2023/05/19 07:48:48;;;;;;;14.23;8.90;;;13.90;97.20;;;;;;5003103;28;20216;-31
2023/05/19 07:51:18;;;;;;;10.63;8.05;;;14.00;97.30;;;;;;5003642;28;20209;-31
2023/05/19 07:53:45;;;;;;;11.80;8.75;;;14.00;97.30;;;;;;4993255;28;20222;-31
2023/05/19 07:56:13;;;;;;;14.13;8.25;;;14.10;97.30;;;;;;4983970;28;20877;-31
2023/05/19 07:58:40;;;;;;;11.23;8.93;;;14.20;97.30;;;;;;4987451;28;20202;-31
2023/05/19 08:01:07;;;;;;;12.87;8.93;;;14.20;97.60;;;;;;4984917;28;20718;-31
2023/05/19 08:03:39;;;;;;;10.40;7.72;;;14.30;97.50;;;;;;4983177;28;20206;-31
2023/05/19 08:06:08;;;;;;;12.50;8.67;;;14.30;97.50;;;;;;4984872;28;20202;-31
2023/05/19 08:08:41;;;;;;;12.85;7.70;;;14.40;97.60;;;;;;4983131;28;20230;-31
2023/05/19 08:11:10;;;;;;;12.05;7.97;;;14.50;97.60;;;;;;4984327;28;20305;-31
2023/05/19 08:13:38;;;;;;;8.60;6.68;;;14.50;97.80;;;;;;4988748;28;20308;-31
2023/05/19 08:16:07;;;;;;;11.02;8.15;;;14.60;97.70;;;;;;4984288;28;20226;-32
2023/05/19 08:18:35;;;;;;;11.63;8.10;;;14.70;97.80;;;;;;4985376;28;20217;-31
2023/05/19 08:21:02;;;;;;;11.73;7.47;;;14.80;97.80;;;;;;4984332;28;20215;-31
2023/05/19 08:23:32;;;;;;;13.00;7.68;;;14.80;97.90;;;;;;4983611;28;20331;-31
2023/05/19 08:26:02;;;;;;;8.60;7.65;;;14.90;97.90;;;;;;4993814;28;20787;-31
2023/05/19 08:28:34;;;;;;;12.20;6.15;;;14.90;97.90;;;;;;5003347;28;20309;-31
2023/05/19 08:31:01;;;;;;;8.82;6.30;;;15.00;97.90;;;;;;4990952;28;20276;-35
2023/05/19 08:33:33;;;;;;;9.32;6.38;;;15.10;98.00;;;;;;4988187;28;20234;-36
2023/05/19 08:36:00;;;;;;;10.40;6.50;;;15.10;98.00;;;;;;4995999;28;20300;-35
2023/05/19 08:38:30;;;;;;;10.63;7.03;;;15.20;98.00;;;;;;4992765;28;20238;-34
2023/05/19 08:40:57;;;;;;;8.60;6.75;;;15.30;98.10;;;;;;4998770;28;20201;-34
2023/05/19 08:43:27;;;;;;;10.13;6.90;;;15.30;98.10;;;;;;5001965;28;20558;-35
2023/05/19 08:45:58;;;;;;;13.35;6.70;;;15.40;98.10;;;;;;4981892;28;20218;-35
2023/05/19 08:48:28;;;;;;;9.40;6.10;;;15.40;98.10;;;;;;5001678;28;20541;-35
2023/05/19 08:51:40;;;;;;;7.63;5.22;;;15.50;98.10;;;;;;4988401;28;20205;-35
2023/05/19 08:54:24;;;;;;;9.68;5.45;;;15.50;98.20;;;;;;4975351;28;20256;-35
2023/05/19 08:56:51;;;;;;;15.25;6.40;;;15.60;98.20;;;;;;4974585;28;20241;-35
2023/05/19 08:59:20;;;;;;;7.43;5.60;;;15.70;98.30;;;;;;4990671;28;20249;-35
2023/05/19 09:01:52;;;;;;;8.27;4.10;;;15.70;98.30;;;;;;5001331;28;20225;-35
2023/05/19 09:04:24;;;;;;;7.55;4.18;;;15.80;98.40;;;;;;4998461;28;20226;-35
2023/05/19 09:07:01;;;;;;;7.95;4.70;;;15.90;98.30;;;;;;5002695;28;21009;-35
2023/05/19 09:09:31;;;;;;;8.00;4.35;;;15.90;98.40;;;;;;4993540;28;20225;-34
2023/05/19 09:12:00;;;;;;;8.57;4.53;;;16.00;98.40;;;;;;5002311;28;20249;-35
2023/05/19 09:14:31;;;;;;;8.57;3.88;;;16.10;98.20;;;;;;4990034;28;20271;-34
2023/05/19 09:17:01;;;;;;;8.05;3.33;;;16.20;97.90;;;;;;4998297;28;20206;-34
2023/05/19 09:19:29;;;;;;;7.75;4.15;;;16.20;97.90;;;;;;4991210;28;20234;-34
2023/05/19 09:22:04;;;;;;;8.30;3.78;;;16.20;98.10;;;;;;4994263;28;20220;-34
2023/05/19 09:24:36;;;;;;;8.35;4.07;;;16.30;98.20;;;;;;4990963;28;20627;-34
2023/05/19 09:27:06;;;;;;;6.70;3.25;;;16.30;98.00;;;;;;5003262;28;20205;-34
2023/05/19 09:29:35;;;;;;;7.47;3.45;;;16.40;98.20;;;;;;4993804;28;20283;-34
2023/05/19 09:32:05;;;;;;;11.82;4.20;;;16.50;98.40;;;;;;5003170;28;20269;-34
2023/05/19 09:34:40;;;;;;;5.38;3.30;;;16.50;98.40;;;;;;4983714;28;20229;-35
2023/05/19 09:37:11;;;;;;;9.60;3.40;;;16.60;98.50;;;;;;4993352;28;20240;-34
2023/05/19 09:39:47;;;;;;;7.15;3.10;;;16.70;98.40;;;;;;4994052;28;20268;-34
2023/05/19 09:42:17;;;;;;;6.55;2.72;;;16.70;98.40;;;;;;4989955;28;20573;-34
2023/05/19 09:44:46;;;;;;;6.30;2.80;;;16.80;98.50;;;;;;4995521;28;20264;-34
2023/05/19 09:47:15;;;;;;;4.32;2.65;;;16.90;98.60;;;;;;5001489;28;20210;-36
2023/05/19 09:49:46;;;;;;;5.28;3.13;;;16.90;98.50;;;;;;4994984;28;20272;-34
2023/05/19 09:52:19;;;;;;;13.70;3.88;;;17.00;98.40;;;;;;4997606;28;20217;-34
2023/05/19 09:54:54;;;;;;;8.02;2.78;;;17.10;98.10;;;;;;4989271;28;20794;-34
2023/05/19 09:57:36;;;;;;;6.90;2.75;;;17.10;98.30;;;;;;4997187;28;20738;-34
2023/05/19 10:00:18;;;;;;;6.88;2.85;;;17.20;98.20;;;;;;4992074;28;20742;-35
2023/05/19 10:02:47;;;;;;;8.10;3.05;;;17.30;98.20;;;;;;4999393;28;20275;-34
2023/05/19 10:05:20;;;;;;;7.82;3.10;;;17.30;98.20;;;;;;4989924;28;20262;-34
2023/05/19 10:07:53;;;;;;;6.03;2.63;;;17.40;98.40;;;;;;4982522;28;20206;-34
2023/05/19 10:10:23;;;;;;;5.13;2.33;;;17.40;98.50;;;;;;4985032;28;20206;-39
2023/05/19 10:12:53;;;;;;;8.10;3.20;;;17.50;98.60;;;;;;4987771;28;20220;-41
2023/05/19 10:15:22;;;;;;;7.63;3.92;;;17.50;98.50;;;;;;4986292;28;20656;-40
2023/05/19 10:17:50;;;;;;;7.88;2.78;;;17.50;97.60;;;;;;4982020;28;20247;-40
2023/05/19 10:20:17;;;;;;;5.82;3.00;;;17.50;98.20;;;;;;4992066;28;20206;-40
2023/05/19 10:22:47;;;;;;;5.57;2.33;;;17.50;97.80;;;;;;4984884;28;20299;-40
2023/05/19 10:25:19;;;;;;;7.32;3.17;;;17.60;98.10;;;;;;4990250;28;20201;-39
2023/05/19 10:27:53;;;;;;;5.57;3.00;;;17.70;98.00;;;;;;5000163;28;20212;-40
2023/05/19 10:30:39;;;;;;;6.63;2.83;;;17.70;97.80;;;;;;4992182;28;20214;-40
2023/05/19 10:33:14;;;;;;;5.97;2.67;;;17.70;97.50;;;;;;5006209;28;20279;-40
2023/05/19 10:35:58;;;;;;;8.00;2.97;;;17.70;97.40;;;;;;5001706;28;20210;-40
2023/05/19 10:38:41;;;;;;;5.75;2.58;;;17.80;97.80;;;;;;5004852;28;20697;-40
2023/05/19 10:41:11;;;;;;;7.43;2.72;;;17.90;97.60;;;;;;4987989;28;20206;-40
2023/05/19 10:44:03;;;;;;;5.47;2.50;;;17.90;97.70;;;;;;5002361;28;20205;-40
2023/05/19 10:46:33;;;;;;;4.88;2.72;;;18.00;97.90;;;;;;4993120;28;20616;-39
2023/05/19 10:49:06;;;;;;;7.60;2.50;;;18.10;98.00;;;;;;4988319;28;20248;-39
2023/05/19 10:51:34;;;;;;;4.28;2.00;;;18.10;97.80;;;;;;4990281;28;20273;-39
2023/05/19 10:54:07;;;;;;;4.30;2.03;;;18.20;98.00;;;;;;4985388;28;20221;-39
2023/05/19 10:56:41;;;;;;;7.05;2.45;;;18.30;98.10;;;;;;4985188;28;20242;-38
2023/05/19 10:59:32;;;;;;;5.78;2.00;;;18.40;98.20;;;;;;4985710;28;20277;-39
2023/05/19 11:02:09;;;;;;;4.70;2.05;;;18.50;98.30;;;;;;4976529;28;20592;-40
2023/05/19 11:04:52;;;;;;;7.03;2.38;;;18.50;98.00;;;;;;4987544;28;20292;-39
2023/05/19 11:07:23;;;;;;;7.22;2.05;;;18.60;98.30;;;;;;4993432;28;20559;-39
2023/05/19 11:09:53;;;;;;;5.07;2.10;;;18.60;97.70;;;;;;5005231;28;20204;-39
2023/05/19 11:12:21;;;;;;;7.95;2.70;;;18.60;97.80;;;;;;4995061;28;20531;-39
2023/05/19 11:14:56;;;;;;;6.65;2.20;;;18.60;97.60;;;;;;5004237;28;20257;-39
2023/05/19 11:17:24;;;;;;;4.93;2.10;;;18.70;97.80;;;;;;4997609;28;20213;-39
2023/05/19 11:19:56;;;;;;;6.75;2.10;;;18.70;98.00;;;;;;4992176;28;20560;-39
2023/05/19 11:22:25;;;;;;;4.63;1.90;;;18.80;98.10;;;;;;4997371;28;20214;-39
2023/05/19 11:24:56;;;;;;;3.40;1.70;;;18.90;98.30;;;;;;4991328;28;20447;-38
2023/05/19 11:27:31;;;;;;;4.15;2.05;;;18.90;98.10;;;;;;4984006;28;20572;-38
2023/05/19 11:30:00;;;;;;;6.38;2.20;;;18.80;97.00;;;;;;4983347;28;20209;-38
2023/05/19 11:32:37;;;;;;;7.57;2.30;;;18.80;96.90;;;;;;4966440;28;20895;-38
2023/05/19 11:35:06;;;;;;;5.68;2.60;;;18.90;97.30;;;;;;4987429;28;20585;-39
2023/05/19 11:37:41;;;;;;;7.93;3.10;;;18.90;96.90;;;;;;5003159;28;20231;-38
2023/05/19 11:40:12;;;;;;;4.72;2.92;;;18.90;96.10;;;;;;4992738;28;20708;-39
2023/05/19 11:42:39;;;;;;;5.68;2.70;;;18.90;96.70;;;;;;4985360;28;20234;-39
2023/05/19 11:45:10;;;;;;;6.95;2.63;;;18.90;96.90;;;;;;4982624;28;20567;-38
2023/05/19 11:47:37;;;;;;;4.63;2.33;;;19.00;97.50;;;;;;4971090;28;20213;-39
2023/05/19 11:50:19;;;;;;;4.68;2.50;;;19.00;97.60;;;;;;4987482;28;20214;-39
2023/05/19 11:52:49;;;;;;;5.38;2.95;;;19.10;97.70;;;;;;4982706;28;20548;-39
2023/05/19 11:55:24;;;;;;;5.45;2.70;;;19.20;96.60;;;;;;4998794;28;20229;-39
2023/05/19 11:57:56;;;;;;;4.60;2.53;;;19.20;97.10;;;;;;4988149;28;20241;-39
2023/05/19 12:00:39;;;;;;;5.25;2.72;;;19.30;97.60;;;;;;4992275;28;20234;-39
2023/05/19 12:03:10;;;;;;;5.47;2.50;;;19.40;97.80;;;;;;4983421;28;20206;-39
2023/05/19 12:05:46;;;;;;;8.50;3.40;;;19.50;97.90;;;;;;4990751;28;20211;-39
2023/05/19 12:08:17;;;;;;;5.28;2.33;;;19.50;97.20;;;;;;4990756;28;20212;-39
2023/05/19 12:10:53;;;;;;;5.00;2.75;;;19.60;97.90;;;;;;4997467;28;20554;-39
2023/05/19 12:13:26;;;;;;;6.78;2.58;;;19.70;98.00;;;;;;4991070;28;20210;-32
2023/05/19 12:15:57;;;;;;;6.63;2.80;;;19.80;97.70;;;;;;4991849;28;20194;-32
2023/05/19 12:18:29;;;;;;;5.30;2.67;;;19.80;97.00;;;;;;4988906;28;20225;-32
2023/05/19 12:20:56;;;;;;;6.20;2.42;;;19.70;97.20;;;;;;4991548;28;20632;-32
2023/05/19 12:23:29;;;;;;;6.28;2.58;;;19.80;97.40;;;;;;4999440;28;20586;-32
2023/05/19 12:25:58;;;;;;;4.78;2.30;;;19.80;97.20;;;;;;4986098;28;20198;-32
2023/05/19 12:28:31;;;;;;;4.85;1.77;;;19.80;97.00;;;;;;4990721;28;20268;-32
2023/05/19 12:31:01;;;;;;;4.15;2.15;;;19.90;97.60;;;;;;4997931;28;20657;-32
2023/05/19 12:33:34;;;;;;;5.57;2.20;;;19.90;97.30;;;;;;4994095;28;20598;-32
2023/05/19 12:36:07;;;;;;;6.15;2.40;;;20.00;97.50;;;;;;4998903;28;20193;-32
2023/05/19 12:38:41;;;;;;;7.15;2.55;;;20.00;97.40;;;;;;4990207;28;20237;-32
2023/05/19 12:41:15;;;;;;;6.18;2.60;;;20.10;97.10;;;;;;5001951;28;20576;-32
2023/05/19 12:43:42;;;;;;;5.95;2.10;;;20.10;97.50;;;;;;4992259;28;20209;-32
2023/05/19 12:46:14;;;;;;;5.53;2.40;;;20.20;97.30;;;;;;4991448;28;20322;-32
2023/05/19 12:48:45;;;;;;;5.03;2.40;;;20.10;96.40;;;;;;4995227;28;20606;-32
2023/05/19 12:51:17;;;;;;;7.75;2.67;;;20.10;96.60;;;;;;4999303;28;20642;-32
2023/05/19 12:53:51;;;;;;;4.15;2.35;;;20.10;96.40;;;;;;5003941;28;20233;-32
2023/05/19 12:56:26;;;;;;;5.18;2.78;;;20.20;96.10;;;;;;4998128;28;20217;-32
2023/05/19 12:58:59;;;;;;;4.18;2.10;;;20.20;96.40;;;;;;4990371;28;20555;-32
2023/05/19 13:01:29;;;;;;;5.78;2.35;;;20.20;96.90;;;;;;5002546;28;20206;-31